Time;durP1;ratioP1;P1;durP2;ratioP2;P2;SDS_P1;SDS_P2;PMS_P1;PMS_P2;Temp;Humidity;BMP_temperature;BMP_pressure;BME280_temperature;BME280_humidity;BME280_pressure;Samples;Min_cycle;Max_cycle;Signal;HPM_P1;HPM_P2
2022/08/19 00:00:03;;;;;;;383.80;329.97;;;;;;;27.84;49.89;99071.50;349935;28;800;-74
2022/08/19 00:00:14;;;;;;;379.48;324.02;;;;;;;27.83;49.38;99064.44;348526;28;1032;-74
2022/08/19 00:00:24;;;;;;;378.70;325.08;;;;;;;27.80;49.75;99065.66;347151;28;1236;-74
2022/08/19 00:00:37;;;;;;;379.17;327.83;;;;;;;27.81;49.93;99066.50;347036;28;801;-74
2022/08/19 00:00:49;;;;;;;379.77;325.88;;;;;;;27.81;49.65;99066.50;348195;28;837;-74
2022/08/19 00:00:59;;;;;;;381.13;325.73;;;;;;;27.82;49.91;99068.16;350019;28;1512;-74
2022/08/19 00:01:10;;;;;;;380.90;324.47;;;;;;;27.83;49.92;99072.53;350050;28;1198;-74
2022/08/19 00:01:20;;;;;;;381.10;327.98;;;;;;;27.83;49.81;99061.75;348506;28;1403;-74
2022/08/19 00:01:31;;;;;;;382.77;330.97;;;;;;;27.83;49.44;99062.59;347290;28;940;-74
2022/08/19 00:01:43;;;;;;;382.40;334.08;;;;;;;27.85;49.69;99066.97;347262;28;781;-74
2022/08/19 00:01:54;;;;;;;379.60;331.73;;;;;;;27.85;49.28;99064.28;348528;28;871;-73
2022/08/19 00:02:05;;;;;;;379.95;332.48;;;;;;;27.85;49.52;99067.78;347196;28;1413;-73
2022/08/19 00:02:15;;;;;;;379.23;323.92;;;;;;;27.85;49.62;99067.78;347107;28;1270;-73
2022/08/19 00:02:25;;;;;;;378.27;324.53;;;;;;;27.83;49.66;99070.66;347218;28;1002;-73
2022/08/19 00:02:36;;;;;;;376.08;319.33;;;;;;;27.85;49.68;99073.16;347082;28;1311;-73
2022/08/19 00:02:46;;;;;;;376.13;321.13;;;;;;;27.86;49.33;99066.78;348358;28;1332;-73
2022/08/19 00:02:57;;;;;;;375.48;318.42;;;;;;;27.85;49.63;99067.78;346941;28;1494;-73
2022/08/19 00:03:07;;;;;;;375.87;320.10;;;;;;;27.86;49.71;99068.63;345796;28;1307;-73
2022/08/19 00:03:18;;;;;;;376.70;318.00;;;;;;;27.85;49.23;99062.41;345378;28;917;-74
2022/08/19 00:03:28;;;;;;;378.48;324.88;;;;;;;27.86;49.50;99068.63;344663;28;1033;-74
2022/08/19 00:03:38;;;;;;;378.60;326.13;;;;;;;27.85;48.87;99062.41;345989;28;738;-74
2022/08/19 00:03:49;;;;;;;378.27;329.95;;;;;;;27.86;49.22;99063.25;342054;28;1114;-74
2022/08/19 00:04:01;;;;;;;377.07;326.13;;;;;;;27.85;49.80;99067.78;342452;28;865;-74
2022/08/19 00:04:13;;;;;;;375.70;324.10;;;;;;;27.84;49.80;99060.75;340475;29;913;-74
2022/08/19 00:04:25;;;;;;;378.30;331.52;;;;;;;27.83;49.36;99065.28;340181;28;1372;-74
2022/08/19 00:04:36;;;;;;;379.30;333.13;;;;;;;27.84;49.33;99066.13;340524;29;1332;-75
2022/08/19 00:04:48;;;;;;;377.90;328.77;;;;;;;27.83;49.72;99061.75;343779;28;813;-74
2022/08/19 00:04:58;;;;;;;375.27;322.90;;;;;;;27.83;49.51;99067.16;344319;28;1479;-74
2022/08/19 00:05:09;;;;;;;373.15;320.77;;;;;;;27.83;49.46;99069.84;341622;28;1331;-74
2022/08/19 00:05:20;;;;;;;375.58;327.58;;;;;;;27.83;49.58;99069.84;348312;28;957;-74
2022/08/19 00:05:31;;;;;;;379.50;332.50;;;;;;;27.81;49.38;99061.13;348368;28;1439;-74
2022/08/19 00:05:42;;;;;;;378.98;331.65;;;;;;;27.81;49.75;99059.25;346996;28;1377;-74
2022/08/19 00:05:52;;;;;;;377.77;328.10;;;;;;;27.82;49.46;99063.63;345336;28;985;-74
2022/08/19 00:06:03;;;;;;;377.67;328.67;;;;;;;27.82;49.90;99065.47;345105;28;1330;-74
2022/08/19 00:06:14;;;;;;;379.73;328.47;;;;;;;27.82;49.39;99065.47;342250;28;1237;-74
2022/08/19 00:06:25;;;;;;;380.00;325.70;;;;;;;27.83;49.76;99067.16;341674;28;905;-74
2022/08/19 00:06:36;;;;;;;378.13;325.10;;;;;;;27.82;50.03;99073.53;346032;28;917;-74
2022/08/19 00:06:47;;;;;;;377.20;327.42;;;;;;;27.80;49.85;99062.13;344879;28;1246;-74
2022/08/19 00:06:58;;;;;;;373.67;323.58;;;;;;;27.79;49.76;99068.53;343086;28;1426;-74
2022/08/19 00:07:08;;;;;;;375.80;326.05;;;;;;;27.78;49.34;99069.56;340464;28;1502;-74
2022/08/19 00:07:19;;;;;;;374.92;325.25;;;;;;;27.79;49.89;99057.78;338706;28;1519;-74
2022/08/19 00:07:29;;;;;;;376.27;329.50;;;;;;;27.78;50.08;99066.88;338729;29;1360;-74
2022/08/19 00:07:41;;;;;;;373.87;324.30;;;;;;;27.79;50.19;99065.84;340283;29;1267;-74
2022/08/19 00:07:51;;;;;;;376.52;326.08;;;;;;;27.77;49.67;99063.34;336445;29;1440;-74
2022/08/19 00:08:02;;;;;;;377.52;325.00;;;;;;;27.78;49.82;99064.19;336215;29;1919;-74
2022/08/19 00:08:12;;;;;;;378.63;324.25;;;;;;;27.79;50.19;99063.16;336547;29;1324;-74
2022/08/19 00:08:23;;;;;;;378.80;326.53;;;;;;;27.79;49.74;99064.00;339102;29;965;-75
2022/08/19 00:08:33;;;;;;;376.10;320.00;;;;;;;27.79;50.05;99064.00;338076;29;838;-74
2022/08/19 00:08:44;;;;;;;375.67;318.52;;;;;;;27.78;49.68;99062.31;337846;29;924;-74
2022/08/19 00:08:55;;;;;;;374.20;319.35;;;;;;;27.76;49.62;99066.22;335192;29;1249;-74
2022/08/19 00:09:07;;;;;;;375.27;325.70;;;;;;;27.73;49.94;99061.19;334846;29;1439;-74
2022/08/19 00:09:18;;;;;;;379.20;331.85;;;;;;;27.70;50.01;99064.28;333796;29;1748;-74
2022/08/19 00:09:29;;;;;;;378.15;323.27;;;;;;;27.71;49.92;99065.97;330623;29;1760;-74
2022/08/19 00:09:39;;;;;;;377.53;322.53;;;;;;;27.68;50.51;99066.34;329067;30;1359;-74
2022/08/19 00:09:49;;;;;;;371.70;317.88;;;;;;;27.68;50.35;99063.66;330774;29;2273;-74
2022/08/19 00:10:00;;;;;;;371.10;318.13;;;;;;;27.68;50.04;99066.34;331591;29;2337;-74
2022/08/19 00:10:11;;;;;;;371.08;317.52;;;;;;;27.66;50.30;99065.69;330250;29;871;-75
2022/08/19 00:10:23;;;;;;;373.25;315.02;;;;;;;27.66;50.01;99065.69;326428;30;1505;-74
2022/08/19 00:10:35;;;;;;;373.85;311.92;;;;;;;27.65;50.20;99066.72;327644;30;1309;-74
2022/08/19 00:10:46;;;;;;;372.25;308.75;;;;;;;27.65;50.00;99067.53;327648;30;1119;-74
2022/08/19 00:10:57;;;;;;;375.73;318.88;;;;;;;27.66;50.20;99065.69;327400;30;1846;-74
2022/08/19 00:11:07;;;;;;;377.87;329.37;;;;;;;27.66;50.49;99065.69;325336;30;820;-74
2022/08/19 00:11:17;;;;;;;378.63;330.50;;;;;;;27.66;49.99;99068.38;328646;29;1970;-74
2022/08/19 00:11:28;;;;;;;375.13;322.83;;;;;;;27.66;50.01;99061.16;328575;29;2342;-74
2022/08/19 00:11:38;;;;;;;371.73;312.63;;;;;;;27.67;50.32;99064.66;326494;30;1275;-74
2022/08/19 00:11:49;;;;;;;373.97;316.27;;;;;;;27.67;50.45;99064.66;325519;30;2487;-73
2022/08/19 00:12:00;;;;;;;374.65;319.00;;;;;;;27.68;50.15;99067.16;325464;30;2595;-74
2022/08/19 00:12:10;;;;;;;375.52;321.73;;;;;;;27.69;50.21;99065.31;324259;30;860;-74
2022/08/19 00:12:21;;;;;;;376.43;321.97;;;;;;;27.69;50.25;99068.00;322707;30;2484;-74
2022/08/19 00:12:31;;;;;;;377.92;322.38;;;;;;;27.69;49.84;99068.84;321589;30;1098;-74
2022/08/19 00:12:42;;;;;;;379.57;324.47;;;;;;;27.69;50.24;99068.00;321638;30;1347;-74
2022/08/19 00:12:52;;;;;;;379.20;325.58;;;;;;;27.70;49.80;99064.28;320115;30;1428;-74
2022/08/19 00:13:04;;;;;;;379.30;330.93;;;;;;;27.70;50.20;99061.59;314766;31;2273;-74
2022/08/19 00:13:15;;;;;;;378.98;333.25;;;;;;;27.69;50.08;99068.00;317319;30;2494;-74
2022/08/19 00:13:26;;;;;;;378.13;330.55;;;;;;;27.69;50.29;99068.00;318329;31;878;-75
2022/08/19 00:13:38;;;;;;;376.88;327.20;;;;;;;27.68;50.17;99072.56;319277;30;1678;-74
2022/08/19 00:13:49;;;;;;;376.88;322.75;;;;;;;27.67;49.85;99067.34;320257;30;3098;-74
2022/08/19 00:14:00;;;;;;;376.92;318.90;;;;;;;27.66;50.09;99069.22;319774;30;3451;-74
2022/08/19 00:14:11;;;;;;;378.25;320.52;;;;;;;27.66;50.36;99068.38;318353;31;787;-75
2022/08/19 00:14:22;;;;;;;377.17;320.17;;;;;;;27.66;49.80;99061.16;313632;31;1401;-74
2022/08/19 00:14:32;;;;;;;376.30;317.40;;;;;;;27.66;49.84;99068.38;314371;31;2598;-74
2022/08/19 00:14:42;;;;;;;374.93;315.33;;;;;;;27.66;50.16;99071.06;312053;31;1544;-74
2022/08/19 00:14:54;;;;;;;374.33;316.77;;;;;;;27.65;49.84;99069.41;308051;31;1389;-74
2022/08/19 00:15:05;;;;;;;373.77;319.17;;;;;;;27.65;49.88;99066.72;307052;31;2342;-74
2022/08/19 00:15:17;;;;;;;372.13;318.95;;;;;;;27.65;49.90;99066.72;308156;31;2915;-74
2022/08/19 00:15:28;;;;;;;373.48;322.90;;;;;;;27.65;50.33;99066.72;309326;31;3541;-74
2022/08/19 00:15:38;;;;;;;374.50;323.48;;;;;;;27.63;50.06;99060.69;310387;31;1393;-74
2022/08/19 00:15:49;;;;;;;376.05;322.40;;;;;;;27.63;50.03;99066.06;308547;31;3970;-75
2022/08/19 00:16:00;;;;;;;375.23;320.07;;;;;;;27.64;50.02;99065.03;306005;31;4640;-74
2022/08/19 00:16:10;;;;;;;376.02;320.60;;;;;;;27.65;49.47;99061.31;306074;32;892;-74
2022/08/19 00:16:21;;;;;;;374.02;322.63;;;;;;;27.66;49.75;99057.63;304743;31;4875;-74
2022/08/19 00:16:31;;;;;;;375.60;325.43;;;;;;;27.65;49.49;99064.84;305829;32;4112;-74
2022/08/19 00:16:43;;;;;;;378.13;332.25;;;;;;;27.66;49.27;99068.38;307556;31;3507;-74
2022/08/19 00:16:54;;;;;;;378.85;330.83;;;;;;;27.66;49.68;99063.00;307174;32;951;-74
2022/08/19 00:17:05;;;;;;;376.83;327.20;;;;;;;27.66;49.42;99063.84;307159;31;2401;-74
2022/08/19 00:17:16;;;;;;;376.40;325.70;;;;;;;27.66;49.30;99063.00;306830;32;3466;-74
2022/08/19 00:17:26;;;;;;;378.47;331.00;;;;;;;27.64;48.74;99059.66;304214;32;4417;-74
2022/08/19 00:17:38;;;;;;;377.48;328.83;;;;;;;27.62;49.24;99064.38;304045;32;805;-74
2022/08/19 00:17:49;;;;;;;375.27;323.25;;;;;;;27.62;49.24;99072.44;303274;32;5493;-74
2022/08/19 00:17:59;;;;;;;373.73;320.90;;;;;;;27.60;49.36;99066.41;302641;32;5538;-74
2022/08/19 00:18:10;;;;;;;374.67;319.43;;;;;;;27.59;49.08;99067.44;302922;32;903;-74
2022/08/19 00:18:20;;;;;;;375.88;316.42;;;;;;;27.59;48.99;99067.44;298732;32;6636;-74
2022/08/19 00:18:31;;;;;;;379.60;313.63;;;;;;;27.57;49.28;99067.59;298144;32;6621;-74
2022/08/19 00:18:42;;;;;;;379.70;315.27;;;;;;;27.57;49.46;99064.06;297928;32;5977;-74
2022/08/19 00:18:54;;;;;;;378.43;320.83;;;;;;;27.56;49.11;99074.00;300877;32;1344;-74
2022/08/19 00:19:05;;;;;;;372.50;316.70;;;;;;;27.57;49.08;99066.75;295522;33;4688;-74
2022/08/19 00:19:16;;;;;;;371.60;312.87;;;;;;;27.58;49.17;99068.44;296386;33;3873;-74
2022/08/19 00:19:26;;;;;;;373.08;314.75;;;;;;;27.59;49.64;99070.97;293528;33;2224;-74
2022/08/19 00:19:37;;;;;;;373.92;314.67;;;;;;;27.58;49.50;99071.94;291002;34;780;-74
2022/08/19 00:19:47;;;;;;;372.87;316.10;;;;;;;27.56;49.36;99067.78;292696;33;6210;-74
2022/08/19 00:19:57;;;;;;;374.88;322.33;;;;;;;27.56;49.76;99070.47;288515;33;6822;-74
2022/08/19 00:20:10;;;;;;;377.57;327.83;;;;;;;27.57;49.74;99070.28;288173;34;794;-74
2022/08/19 00:20:21;;;;;;;378.48;327.73;;;;;;;27.57;49.51;99069.44;288293;33;7959;-73
2022/08/19 00:20:31;;;;;;;375.93;320.47;;;;;;;27.57;49.51;99064.06;290531;33;8865;-73
2022/08/19 00:20:41;;;;;;;374.65;318.13;;;;;;;27.57;49.70;99064.06;292131;33;9446;-73
2022/08/19 00:20:52;;;;;;;374.53;319.27;;;;;;;27.57;49.64;99064.06;289825;34;1183;-73
2022/08/19 00:21:06;;;;;;;375.33;320.63;;;;;;;27.58;49.29;99060.38;287137;34;7905;-73
2022/08/19 00:21:17;;;;;;;375.52;320.38;;;;;;;27.59;50.02;99064.75;284557;34;6611;-73
2022/08/19 00:21:28;;;;;;;374.90;323.92;;;;;;;27.59;49.67;99070.97;285660;34;5718;-73
2022/08/19 00:21:39;;;;;;;374.23;322.07;;;;;;;27.58;49.17;99071.13;288842;34;1380;-73
2022/08/19 00:23:34;;;;;;;378.31;301.60;;;;;;;26.81;51.37;99066.78;2495417;27;20494;-73
2022/08/19 00:23:44;;;;;;;389.60;327.10;;;;;;;26.84;51.28;99061.06;352554;28;929;-73
2022/08/19 00:23:57;;;;;;;396.35;330.83;;;;;;;26.87;51.11;99064.38;351415;28;963;-73
2022/08/19 00:24:09;;;;;;;392.70;336.13;;;;;;;26.92;51.11;99068.19;348275;28;1464;-73
2022/08/19 00:24:19;;;;;;;389.10;330.17;;;;;;;26.95;50.95;99064.31;347248;28;1274;-73
2022/08/19 00:24:30;;;;;;;389.88;329.15;;;;;;;26.94;51.05;99057.25;347057;28;884;-73
2022/08/19 00:24:41;;;;;;;388.93;323.20;;;;;;;26.89;50.95;99075.75;347133;28;920;-73
2022/08/19 00:24:51;;;;;;;398.15;332.10;;;;;;;26.82;51.03;99068.47;348455;28;1231;-73
2022/08/19 00:25:01;;;;;;;394.30;331.80;;;;;;;26.82;51.38;99070.31;348896;28;864;-74
2022/08/19 00:25:12;;;;;;;388.23;327.90;;;;;;;26.84;51.12;99068.28;348225;28;1312;-74
2022/08/19 00:25:22;;;;;;;383.17;324.27;;;;;;;26.86;50.91;99068.09;349804;28;1229;-74
2022/08/19 00:25:33;;;;;;;387.15;327.60;;;;;;;26.89;50.81;99065.03;350058;28;1473;-74
2022/08/19 00:25:43;;;;;;;388.73;330.13;;;;;;;26.94;50.86;99073.38;346965;28;1097;-74
2022/08/19 00:25:54;;;;;;;385.75;328.42;;;;;;;26.99;50.71;99068.34;347011;28;1412;-74
2022/08/19 00:26:04;;;;;;;388.00;327.70;;;;;;;27.03;50.49;99072.31;345748;28;1296;-74
2022/08/19 00:26:15;;;;;;;386.48;324.73;;;;;;;27.08;50.85;99069.94;345699;28;869;-74
2022/08/19 00:26:26;;;;;;;392.33;327.40;;;;;;;27.12;50.72;99072.09;344509;28;856;-74
2022/08/19 00:26:37;;;;;;;387.38;323.42;;;;;;;27.16;50.28;99072.56;347007;28;1377;-74
2022/08/19 00:26:48;;;;;;;381.08;317.42;;;;;;;27.19;50.48;99074.88;348780;28;833;-73
2022/08/19 00:26:58;;;;;;;373.13;307.38;;;;;;;27.20;50.24;99073.88;348546;28;896;-73
2022/08/19 00:27:09;;;;;;;374.37;310.50;;;;;;;27.23;50.43;99069.97;346823;28;1235;-74
2022/08/19 00:27:19;;;;;;;378.77;310.90;;;;;;;27.25;49.79;99065.25;348425;28;1303;-74
2022/08/19 00:27:30;;;;;;;383.93;315.83;;;;;;;27.26;50.17;99067.75;351249;28;950;-74
2022/08/19 00:27:40;;;;;;;381.90;319.20;;;;;;;27.29;50.30;99074.63;349118;28;1179;-74
2022/08/19 00:27:50;;;;;;;379.38;326.48;;;;;;;27.28;50.17;99065.72;348692;28;968;-74
2022/08/19 00:28:01;;;;;;;375.80;326.10;;;;;;;27.30;49.80;99068.19;350036;28;806;-74
2022/08/19 00:28:11;;;;;;;374.83;320.17;;;;;;;27.31;50.39;99069.88;346329;28;1423;-74
2022/08/19 00:28:22;;;;;;;374.73;317.60;;;;;;;27.32;49.93;99067.00;347313;28;896;-74
2022/08/19 00:28:32;;;;;;;377.08;315.30;;;;;;;27.33;49.93;99068.66;344619;28;833;-74
2022/08/19 00:28:43;;;;;;;378.80;316.43;;;;;;;27.35;49.99;99065.81;348654;28;801;-74
2022/08/19 00:28:53;;;;;;;378.97;316.50;;;;;;;27.36;49.62;99068.31;348531;28;882;-74
2022/08/19 00:29:04;;;;;;;379.67;320.58;;;;;;;27.38;49.71;99070.81;348522;28;1239;-74
2022/08/19 00:29:16;;;;;;;378.05;321.08;;;;;;;27.39;49.67;99070.63;345645;28;833;-74
2022/08/19 00:29:27;;;;;;;374.63;316.70;;;;;;;27.41;49.34;99065.06;348908;28;1207;-74
2022/08/19 00:29:37;;;;;;;372.63;312.98;;;;;;;27.41;49.65;99065.91;348038;28;984;-74
2022/08/19 00:29:48;;;;;;;374.73;316.73;;;;;;;27.42;49.55;99062.19;344483;28;1296;-74
2022/08/19 00:29:58;;;;;;;373.48;314.80;;;;;;;27.44;49.92;99070.91;347728;28;1439;-74
2022/08/19 00:30:10;;;;;;;374.63;318.80;;;;;;;27.45;49.99;99069.91;347048;28;1156;-74
2022/08/19 00:30:20;;;;;;;373.92;316.95;;;;;;;27.45;50.07;99066.38;348093;28;872;-74
2022/08/19 00:30:31;;;;;;;374.97;317.73;;;;;;;27.46;49.55;99068.88;341775;28;865;-74
2022/08/19 00:30:41;;;;;;;373.80;315.58;;;;;;;27.42;50.00;99064.88;340568;29;956;-74
2022/08/19 00:30:52;;;;;;;374.20;318.43;;;;;;;27.41;50.37;99060.53;342782;28;1261;-74
2022/08/19 00:31:04;;;;;;;372.00;316.40;;;;;;;27.41;49.58;99073.97;343142;28;1467;-74
2022/08/19 00:31:16;;;;;;;372.70;315.88;;;;;;;27.42;49.65;99067.56;344169;28;1520;-74
2022/08/19 00:31:27;;;;;;;374.77;321.00;;;;;;;27.42;49.72;99072.94;344211;28;1426;-74
2022/08/19 00:31:37;;;;;;;374.15;320.13;;;;;;;27.43;49.98;99068.41;341148;28;1608;-74
2022/08/19 00:31:49;;;;;;;372.90;317.50;;;;;;;27.43;49.46;99061.19;340490;29;932;-74
2022/08/19 00:32:00;;;;;;;375.70;320.90;;;;;;;27.43;49.85;99065.72;341491;28;1467;-74
2022/08/19 00:32:10;;;;;;;377.45;323.85;;;;;;;27.44;49.36;99075.47;340678;28;1606;-74
2022/08/19 00:32:21;;;;;;;377.00;322.23;;;;;;;27.43;49.62;99065.72;341610;28;1977;-74
2022/08/19 00:32:31;;;;;;;374.48;314.88;;;;;;;27.43;49.80;99066.56;343145;28;758;-74
2022/08/19 00:32:42;;;;;;;375.00;317.17;;;;;;;27.44;49.50;99065.53;342638;28;1365;-74
2022/08/19 00:32:54;;;;;;;374.70;316.20;;;;;;;27.44;49.95;99062.84;343120;28;962;-74
2022/08/19 00:33:05;;;;;;;373.85;316.75;;;;;;;27.44;49.70;99068.22;345943;28;1411;-74
2022/08/19 00:33:16;;;;;;;370.70;312.98;;;;;;;27.44;50.29;99060.16;340369;28;1430;-74
2022/08/19 00:33:26;;;;;;;374.75;317.15;;;;;;;27.44;50.38;99064.69;340250;28;1514;-74
2022/08/19 00:33:37;;;;;;;379.92;325.38;;;;;;;27.44;49.92;99065.53;341959;28;2585;-75
2022/08/19 00:33:50;;;;;;;378.38;324.17;;;;;;;27.43;49.31;99063.88;345841;28;821;-74
2022/08/19 00:34:00;;;;;;;374.65;321.20;;;;;;;27.43;49.32;99065.72;340168;28;1781;-74
2022/08/19 00:34:11;;;;;;;372.40;315.33;;;;;;;27.43;49.29;99061.19;342198;28;2031;-74
2022/08/19 00:34:22;;;;;;;372.35;309.88;;;;;;;27.43;48.83;99063.88;341541;28;2296;-74
2022/08/19 00:34:33;;;;;;;372.70;307.17;;;;;;;27.45;48.89;99066.38;341915;28;793;-74
2022/08/19 00:34:43;;;;;;;373.73;306.58;;;;;;;27.45;49.44;99066.38;339172;29;1295;-74
2022/08/19 00:34:53;;;;;;;373.60;310.60;;;;;;;27.46;49.20;99068.03;339068;29;1198;-74
2022/08/19 00:35:04;;;;;;;370.80;309.75;;;;;;;27.45;49.58;99059.16;341397;28;1620;-74
2022/08/19 00:35:16;;;;;;;369.60;310.45;;;;;;;27.47;49.25;99059.78;339159;28;1157;-74
2022/08/19 00:35:27;;;;;;;369.70;311.92;;;;;;;27.46;49.33;99062.66;340417;28;1920;-74
2022/08/19 00:35:38;;;;;;;371.48;313.98;;;;;;;27.46;49.18;99063.50;342847;28;2420;-73
2022/08/19 00:35:48;;;;;;;371.15;311.20;;;;;;;27.45;49.33;99061.84;340675;29;885;-73
2022/08/19 00:36:00;;;;;;;369.13;306.13;;;;;;;27.45;49.29;99058.31;334638;29;2457;-73
2022/08/19 00:36:10;;;;;;;370.02;308.73;;;;;;;27.46;49.26;99066.19;333549;29;2583;-75
2022/08/19 00:36:20;;;;;;;372.48;311.85;;;;;;;27.45;49.36;99061.84;329812;29;2644;-74
2022/08/19 00:36:32;;;;;;;375.73;314.53;;;;;;;27.45;49.13;99059.16;322999;30;908;-74
2022/08/19 00:36:43;;;;;;;376.00;313.00;;;;;;;27.46;48.95;99057.28;325235;30;2369;-74
2022/08/19 00:36:54;;;;;;;375.30;315.47;;;;;;;27.46;48.59;99063.50;324735;30;1459;-74
2022/08/19 00:37:04;;;;;;;375.23;318.92;;;;;;;27.46;48.79;99052.75;325316;30;1421;-74
2022/08/19 00:37:15;;;;;;;374.65;319.80;;;;;;;27.47;48.50;99059.78;326334;30;1461;-74
2022/08/19 00:37:26;;;;;;;376.00;318.73;;;;;;;27.47;48.92;99059.78;327283;30;2223;-73
2022/08/19 00:37:36;;;;;;;374.00;315.60;;;;;;;27.46;47.99;99052.75;328638;29;2491;-74
2022/08/19 00:37:48;;;;;;;375.53;319.47;;;;;;;27.47;48.09;99059.78;329000;30;1195;-74
2022/08/19 00:37:59;;;;;;;374.20;317.17;;;;;;;27.47;48.18;99065.16;327096;30;2845;-74
2022/08/19 00:38:09;;;;;;;375.08;315.95;;;;;;;27.48;47.97;99057.94;325621;30;3374;-73
2022/08/19 00:38:22;;;;;;;374.50;309.13;;;;;;;27.48;47.61;99064.16;325721;30;1185;-73
2022/08/19 00:38:33;;;;;;;373.27;309.02;;;;;;;27.49;47.58;99059.63;326509;30;899;-75
2022/08/19 00:38:44;;;;;;;373.23;311.25;;;;;;;27.48;47.81;99058.78;326868;30;3317;-74
2022/08/19 00:38:54;;;;;;;371.83;315.67;;;;;;;27.49;47.63;99056.91;326013;30;3236;-73
2022/08/19 00:39:05;;;;;;;373.50;315.75;;;;;;;27.49;47.59;99057.75;325454;30;883;-73
2022/08/19 00:39:16;;;;;;;372.77;315.73;;;;;;;27.50;47.76;99058.59;326018;30;1873;-73
2022/08/19 00:39:26;;;;;;;371.37;312.40;;;;;;;27.50;47.54;99054.06;324668;30;2350;-73
2022/08/19 00:39:37;;;;;;;370.50;314.25;;;;;;;27.50;47.60;99054.06;321264;30;2672;-73
2022/08/19 00:39:47;;;;;;;369.70;310.90;;;;;;;27.50;48.20;99054.06;319412;30;976;-73
2022/08/19 00:39:58;;;;;;;371.00;316.40;;;;;;;27.50;47.91;99054.06;317775;30;3357;-73
2022/08/19 00:40:10;;;;;;;373.10;321.50;;;;;;;27.52;47.60;99053.03;315491;30;3844;-73
2022/08/19 00:40:21;;;;;;;376.83;326.60;;;;;;;27.52;47.92;99061.09;315638;31;969;-73
2022/08/19 00:40:31;;;;;;;376.53;323.80;;;;;;;27.53;47.99;99054.69;312613;31;863;-73
2022/08/19 00:40:46;;;;;;;374.05;321.38;;;;;;;27.52;48.24;99050.34;310795;31;4454;-73
2022/08/19 00:40:56;;;;;;;373.13;319.83;;;;;;;27.52;48.52;99061.94;313380;31;5227;-73
2022/08/19 00:41:07;;;;;;;374.93;316.30;;;;;;;27.52;48.13;99051.19;313223;31;4457;-73
2022/08/19 00:41:20;;;;;;;376.63;320.23;;;;;;;27.51;48.42;99049.50;313758;31;1358;-73
2022/08/19 00:41:30;;;;;;;376.27;320.60;;;;;;;27.50;48.25;99051.38;310627;31;2448;-73
2022/08/19 00:41:41;;;;;;;375.87;320.43;;;;;;;27.52;47.82;99055.72;312053;31;3136;-74
2022/08/19 00:41:51;;;;;;;377.13;321.63;;;;;;;27.52;48.30;99055.72;310238;31;4085;-74
2022/08/19 00:42:02;;;;;;;378.10;324.70;;;;;;;27.50;47.87;99056.75;308301;32;1069;-74
2022/08/19 00:42:13;;;;;;;378.33;324.80;;;;;;;27.50;48.27;99056.75;309689;31;4870;-74
2022/08/19 00:42:28;;;;;;;379.40;328.77;;;;;;;27.52;48.36;99053.03;308541;31;5274;-74
2022/08/19 00:42:38;;;;;;;378.33;329.52;;;;;;;27.51;48.24;99054.88;309687;31;6278;-74
2022/08/19 00:42:48;;;;;;;376.70;326.77;;;;;;;27.50;47.93;99048.69;308254;32;860;-74
2022/08/19 00:42:59;;;;;;;374.53;321.63;;;;;;;27.52;47.95;99050.34;304864;32;6310;-74
2022/08/19 00:43:10;;;;;;;375.15;321.60;;;;;;;27.52;48.27;99053.03;304389;31;6463;-74
2022/08/19 00:43:21;;;;;;;376.10;323.10;;;;;;;27.52;47.73;99044.97;304972;32;794;-74
2022/08/19 00:43:32;;;;;;;377.15;324.98;;;;;;;27.53;48.66;99054.69;298567;33;1451;-74
2022/08/19 00:43:42;;;;;;;375.63;321.50;;;;;;;27.52;48.22;99050.34;298667;32;3680;-75
2022/08/19 00:44:00;;;;;;;373.37;317.23;;;;;;;27.50;48.45;99048.69;298255;32;4616;-74
2022/08/19 00:44:19;;;;;;;371.88;313.70;;;;;;;27.52;48.40;99050.34;297083;32;5508;-74
2022/08/19 00:44:30;;;;;;;376.80;325.50;;;;;;;27.52;48.14;99048.50;295570;33;6748;-75
2022/08/19 00:44:40;;;;;;;378.17;328.80;;;;;;;27.49;48.26;99049.69;295703;33;7546;-74
2022/08/19 00:44:51;;;;;;;376.90;327.70;;;;;;;27.49;48.46;99047.00;294533;33;1659;-74
2022/08/19 00:45:02;;;;;;;373.75;322.38;;;;;;;27.48;48.52;99056.09;289995;34;1038;-74
2022/08/19 00:45:17;;;;;;;373.75;322.85;;;;;;;27.49;48.71;99047.00;289831;33;9480;-74
2022/08/19 00:45:30;;;;;;;374.90;320.15;;;;;;;27.48;48.38;99045.34;288213;33;9229;-74
2022/08/19 00:45:43;;;;;;;377.15;316.23;;;;;;;27.48;48.52;99048.03;284257;34;8640;-74
2022/08/19 00:45:54;;;;;;;379.08;321.88;;;;;;;27.48;48.63;99045.34;283484;34;5618;-74
2022/08/19 00:46:04;;;;;;;377.67;324.57;;;;;;;27.47;49.17;99049.03;283545;34;940;-74
2022/08/19 00:46:15;;;;;;;376.92;325.50;;;;;;;27.47;48.72;99051.72;283811;34;6501;-74
2022/08/19 00:46:26;;;;;;;373.70;325.17;;;;;;;27.48;49.15;99049.88;282408;34;7935;-74
2022/08/19 00:48:12;;;;;;;373.04;295.77;;;;;;;27.47;49.61;99049.03;2492302;27;20300;-74
2022/08/19 00:48:23;;;;;;;382.23;316.37;;;;;;;27.46;49.43;99042.00;352618;28;1297;-74
2022/08/19 00:48:33;;;;;;;378.95;318.92;;;;;;;27.46;49.87;99042.00;352404;28;1381;-74
2022/08/19 00:48:44;;;;;;;376.70;323.30;;;;;;;27.46;49.64;99047.38;350088;28;729;-74
2022/08/19 00:48:55;;;;;;;376.02;316.75;;;;;;;27.45;49.52;99043.00;347399;28;781;-75
2022/08/19 00:49:10;;;;;;;376.52;313.52;;;;;;;27.46;49.29;99042.00;347015;28;1309;-74
2022/08/19 00:49:24;;;;;;;375.00;312.17;;;;;;;27.45;49.70;99045.69;348425;28;1457;-74
2022/08/19 00:49:40;;;;;;;373.65;314.13;;;;;;;27.46;49.42;99042.00;346983;28;1331;-74
2022/08/19 00:49:53;;;;;;;371.23;311.50;;;;;;;27.45;49.59;99034.94;347845;28;938;-74
2022/08/19 00:50:04;;;;;;;372.00;316.48;;;;;;;27.45;49.59;99045.69;348490;28;1441;-74
2022/08/19 00:50:15;;;;;;;372.38;314.05;;;;;;;27.46;49.76;99041.16;347144;28;1489;-74
2022/08/19 00:50:26;;;;;;;370.55;311.50;;;;;;;27.45;49.51;99043.00;348476;28;1406;-74
2022/08/19 00:50:36;;;;;;;371.58;308.33;;;;;;;27.44;49.56;99044.03;347877;28;894;-75
2022/08/19 00:50:47;;;;;;;374.43;314.10;;;;;;;27.44;49.39;99044.03;348541;28;1321;-74
2022/08/19 00:50:58;;;;;;;374.95;313.70;;;;;;;27.45;49.57;99043.00;347323;28;1124;-74
2022/08/19 00:51:08;;;;;;;375.27;315.20;;;;;;;27.44;49.27;99035.97;345823;28;805;-74
2022/08/19 00:51:19;;;;;;;376.20;314.87;;;;;;;27.44;49.41;99043.19;345998;28;839;-74
2022/08/19 00:51:29;;;;;;;377.23;318.27;;;;;;;27.43;49.71;99034.28;348666;28;857;-74
2022/08/19 00:51:40;;;;;;;376.57;318.27;;;;;;;27.43;49.31;99039.69;345786;28;1263;-74
2022/08/19 00:51:55;;;;;;;380.48;316.73;;;;;;;27.43;49.69;99041.53;344797;28;1300;-74
2022/08/19 00:52:34;;;;;;;378.38;311.60;;;;;;;27.40;49.54;99042.72;349134;28;1094;-74
2022/08/19 00:52:47;;;;;;;371.35;312.90;;;;;;;27.38;49.66;99042.06;337770;29;910;-74
2022/08/19 00:52:59;;;;;;;368.67;308.63;;;;;;;27.40;49.88;99036.53;338942;29;1126;-74
2022/08/19 00:53:11;;;;;;;372.33;312.13;;;;;;;27.39;49.61;99041.06;342941;28;962;-74
2022/08/19 00:53:23;;;;;;;373.92;314.23;;;;;;;27.40;49.58;99040.03;342964;28;861;-74
2022/08/19 00:53:33;;;;;;;375.77;316.63;;;;;;;27.42;49.46;99043.38;339953;29;1386;-74
2022/08/19 00:53:44;;;;;;;377.25;322.70;;;;;;;27.41;49.88;99047.09;340079;29;1404;-74
2022/08/19 00:53:55;;;;;;;378.47;322.93;;;;;;;27.42;49.30;99045.22;342440;28;815;-74
2022/08/19 00:54:05;;;;;;;374.90;314.92;;;;;;;27.43;49.82;99033.47;344102;28;1487;-74
2022/08/19 00:54:16;;;;;;;372.10;306.35;;;;;;;27.42;49.91;99040.69;343154;28;1446;-74
2022/08/19 00:54:27;;;;;;;373.58;306.83;;;;;;;27.43;49.86;99039.69;340385;29;691;-74
2022/08/19 00:54:38;;;;;;;372.20;302.50;;;;;;;27.45;49.84;99040.31;342817;28;1280;-74